Regeneracao, Brazil
Current Conditions -  °F | °C
As of 9:00 PM on Wednesday 26 Nov 2014 (Local Time) from SBTE Reporting Station
Broken Clouds Broken Clouds  
Wind Chill: 90°   Ceiling: 9000
Heat Index: 95°   Visibility: 6mi
Dew Point: 70°   Wind: 7mph
Humidity: 52%   Direction: 330°NNW
Pressure: 29.77"   Gusts: NA
Location:  6.24°S, 42.69°W
Report Text: SBTE 270000Z 33006KT 9999 SCT030 BKN090 32/21 Q1008
Loading
Personal Weather Stations






























Interactive Weather Map New forecast layout! Learn more

10-Day Weather Forecast

Advertisements
Track Severe Weather on mobile